Current Weather

Manchester Municipal Ap

Manchester Municipal Ap, New Hampshire (KMHT)

Report from: Thursday, May 19, 2022 2:29 PM EDT
Current time: Thursday, May 19, 2022 2:45 PM EDT

Nearby weather
Weather history
Weather forecast

Present weatherMist
Temperature12.2°C (54.0°F)
Dew point10.6°C (51.1°F)
Winds 5 kts (2.6 m/s, 5.8 mph) East-Southeast (110°)
Visibility2.5 mi. (4 km)
Clouds Ceiling: Broken clouds 800 ft. (244 m)
Overcast 1,900 ft. (579 m)
Altimeter29.71 in.Hg (1006 mB)
PrecipitiationTrace
Precip. events Rain ended 2:04 PM
Relative humidity90 %
Density altitude90 ft. (28 m)
Remarks Automated weather observing station with precipitation discriminator
Surface visibility
Flight conditions Instrument Meteorological Conditions
Raw dataKMHT 191829Z 11005KT 2 1/2SM BR BKN008 OVC019 12/11 A2971 RMK AO2 SFC VIS 4 RAE04 P0000 T01220106
An error has occurred. This application may no longer respond until reloaded. Reload 🗙